Time;durP1;ratioP1;P1;durP2;ratioP2;P2;SDS_P1;SDS_P2;PMS_P1;PMS_P2;Temp;Humidity;BMP_temperature;BMP_pressure;BME280_temperature;BME280_humidity;BME280_pressure;Samples;Min_cycle;Max_cycle;Signal;HPM_P1;HPM_P2
2022/06/29 00:01:22;;;;;;;;;;;;;;;18.55;50.16699;101743.5;;;;-84
2022/06/29 00:03:45;;;;;;;2.6;1.2;;;;;;;;;;;;;-83
2022/06/29 00:06:20;;;;;;;;;;;;;;;18.5;50.19531;101739;;;;-84
2022/06/29 00:11:19;;;;;;;;;;;;;;;18.44;50.13184;101731.2;;;;-85
2022/06/29 00:16:22;;;;;;;;;;;;;;;18.42;49.91309;101728.8;;;;-84
2022/06/29 00:21:20;;;;;;;;;;;;;;;18.37;50.50977;101725;;;;-84
2022/06/29 00:26:18;;;;;;;;;;;;;;;18.33;50.44824;101724.6;;;;-85
2022/06/29 00:31:19;;;;;;;;;;;;;;;18.3;50.72852;101717.9;;;;-85
2022/06/29 00:33:47;;;;;;;3.6;1.5;;;;;;;;;;;;;-85
2022/06/29 00:36:21;;;;;;;;;;;;;;;18.25;50.43945;101718.2;;;;-85
2022/06/29 00:41:20;;;;;;;;;;;;;;;18.2;50.83203;101710.5;;;;-85
2022/06/29 00:46:20;;;;;;;;;;;;;;;18.15;50.62109;101707.5;;;;-84
2022/06/29 00:51:20;;;;;;;;;;;;;;;18.09;50.75;101701.7;;;;-84
2022/06/29 00:56:25;;;;;;;;;;;;;;;18.05;50.91602;101696.8;;;;-82
2022/06/29 01:01:19;;;;;;;;;;;;;;;18.03;50.77832;101697.2;;;;-84
2022/06/29 01:03:48;;;;;;;3;1.5;;;;;;;;;;;;;-85
2022/06/29 01:06:20;;;;;;;;;;;;;;;17.98;51.07813;101695.3;;;;-85
2022/06/29 01:11:18;;;;;;;;;;;;;;;17.93;51.35547;101687.7;;;;-84
2022/06/29 01:16:19;;;;;;;;;;;;;;;17.89;51.2832;101683.5;;;;-84
2022/06/29 01:21:22;;;;;;;;;;;;;;;17.84;50.95996;101679.6;;;;-83
2022/06/29 01:26:19;;;;;;;;;;;;;;;17.81;50.93359;101681;;;;-85
2022/06/29 01:31:23;;;;;;;;;;;;;;;17.78;51.17969;101682.7;;;;-85
2022/06/29 01:33:50;;;;;;;3.2;1.5;;;;;;;;;;;;;-84
2022/06/29 01:36:21;;;;;;;;;;;;;;;17.74;51.1748;101675;;;;-84
2022/06/29 01:41:18;;;;;;;;;;;;;;;17.7;51.22754;101673.4;;;;-85
2022/06/29 01:46:20;;;;;;;;;;;;;;;17.65;51.59668;101666.8;;;;-84
2022/06/29 01:51:18;;;;;;;;;;;;;;;17.62;51.44434;101673.8;;;;-83
2022/06/29 01:56:20;;;;;;;;;;;;;;;17.58;51.24805;101672.1;;;;-85
2022/06/29 02:01:18;;;;;;;;;;;;;;;17.54;51.45801;101674.9;;;;-84
2022/06/29 02:03:51;;;;;;;2.7;1.3;;;;;;;;;;;;;-84
2022/06/29 02:06:20;;;;;;;;;;;;;;;17.51;51.66016;101662.6;;;;-85
2022/06/29 02:11:19;;;;;;;;;;;;;;;17.46;51.33594;101655.5;;;;-84
2022/06/29 02:16:22;;;;;;;;;;;;;;;17.4;51.27148;101651.8;;;;-84
2022/06/29 02:21:20;;;;;;;;;;;;;;;17.35;51.20996;101647.7;;;;-85
2022/06/29 02:26:20;;;;;;;;;;;;;;;17.29;51.40723;101645.3;;;;-84
2022/06/29 02:36:19;;;;;;;;;;;;;;;17.22;51.54492;101638.7;;;;-84
2022/06/29 02:46:25;;;;;;;;;;;;;;;17.14;51.45703;101632.4;;;;-85
2022/06/29 02:51:19;;;;;;;;;;;;;;;17.07;51.4834;101627.4;;;;-84
2022/06/29 02:56:19;;;;;;;;;;;;;;;17.04;51.46777;101616;;;;-85
2022/06/29 03:01:20;;;;;;;;;;;;;;;17.02;51.64648;101614.1;;;;-85
2022/06/29 03:03:56;;;;;;;2.5;1.4;;;;;;;;;;;;;-84
2022/06/29 03:06:18;;;;;;;;;;;;;;;16.99;51.5752;101612.9;;;;-84
2022/06/29 03:11:19;;;;;;;;;;;;;;;16.95;51.79688;101608.8;;;;-85
2022/06/29 03:16:21;;;;;;;;;;;;;;;16.92;51.69141;101599.9;;;;-83
2022/06/29 03:21:21;;;;;;;;;;;;;;;16.89;51.88086;101596.4;;;;-84
2022/06/29 03:26:20;;;;;;;;;;;;;;;16.84;51.81836;101592.9;;;;-84
2022/06/29 03:31:18;;;;;;;;;;;;;;;16.82;51.97461;101584.1;;;;-86
2022/06/29 03:33:58;;;;;;;3.1;1.5;;;;;;;;;;;;;-84
2022/06/29 03:36:21;;;;;;;;;;;;;;;16.8;51.98438;101579.7;;;;-85
2022/06/29 03:41:24;;;;;;;;;;;;;;;16.79;51.63184;101581.9;;;;-84
2022/06/29 03:46:20;;;;;;;;;;;;;;;16.74;51.49023;101580.1;;;;-82
2022/06/29 03:51:19;;;;;;;;;;;;;;;16.73;51.5791;101579;;;;-84
2022/06/29 03:56:19;;;;;;;;;;;;;;;16.71;51.61133;101580.5;;;;-85
2022/06/29 04:01:19;;;;;;;;;;;;;;;16.66;51.59375;101575.1;;;;-83
2022/06/29 04:04:00;;;;;;;4.1;1.6;;;;;;;;;;;;;-85
2022/06/29 04:06:20;;;;;;;;;;;;;;;16.64;51.43359;101578.4;;;;-85
2022/06/29 04:16:22;;;;;;;;;;;;;;;16.64;51.61328;101574;;;;-84
2022/06/29 04:21:21;;;;;;;;;;;;;;;16.62;51.52148;101567.4;;;;-85
2022/06/29 04:26:22;;;;;;;;;;;;;;;16.61;51.52051;101567.8;;;;-83
2022/06/29 04:31:21;;;;;;;;;;;;;;;16.62;51.48633;101562.7;;;;-83
2022/06/29 04:34:01;;;;;;;3.1;1.7;;;;;;;;;;;;;-85
2022/06/29 04:36:22;;;;;;;;;;;;;;;16.64;51.38672;101558.9;;;;-84
2022/06/29 04:41:20;;;;;;;;;;;;;;;16.67;51.62793;101554.5;;;;-84
2022/06/29 04:51:23;;;;;;;;;;;;;;;16.77;51.90137;101547.9;;;;-84
2022/06/29 04:56:21;;;;;;;;;;;;;;;16.86;52.47754;101551;;;;-84
2022/06/29 05:01:19;;;;;;;;;;;;;;;16.96;51.93457;101541.3;;;;-85
2022/06/29 05:04:03;;;;;;;2.5;1.8;;;;;;;;;;;;;-83
2022/06/29 05:06:24;;;;;;;;;;;;;;;17.07;52.43457;101540;;;;-84
2022/06/29 05:11:30;;;;;;;;;;;;;;;17.18;52.38086;101533;;;;-85
2022/06/29 05:16:25;;;;;;;;;;;;;;;17.28;52.52734;101530.5;;;;-85
2022/06/29 05:21:22;;;;;;;;;;;;;;;17.43;52.44336;101536.7;;;;-84
2022/06/29 05:26:24;;;;;;;;;;;;;;;17.66;52.3916;101546.2;;;;-85
2022/06/29 05:31:36;;;;;;;;;;;;;;;18.16;51.76953;101538.8;;;;-84
2022/06/29 05:34:22;;;;;;;2.7;1.6;;;;;;;;;;;;;-85
2022/06/29 05:41:28;;;;;;;;;;;;;;;19.57;49.20996;101524.5;;;;-86
2022/06/29 05:46:20;;;;;;;;;;;;;;;20.29;48.22852;101514.3;;;;-84
2022/06/29 05:51:40;;;;;;;;;;;;;;;20.94;47.40625;101503.8;;;;-86
2022/06/29 06:35:00;;;;;;;;;;;;;;;25.56;41.73047;101491.8;;;;-85
2022/06/29 06:39:16;;;;;;;;;;;;;;;25.41;41.87891;101495.1;;;;-84
2022/06/29 06:44:14;;;;;;;;;;;;;;;25.72;41.50293;101487.7;;;;-85
2022/06/29 06:49:08;;;;;;;;;;;;;;;26.04;41.14844;101485.9;;;;-83
2022/06/29 06:54:08;;;;;;;;;;;;;;;26.3;40.69727;101487.2;;;;-84
2022/06/29 06:59:10;;;;;;;;;;;;;;;26.56;40.2793;101495.7;;;;-85
2022/06/29 07:04:13;;;;;;;;;;;;;;;26.67;39.90625;101487.3;;;;-84
2022/06/29 07:04:26;;;;;;;4.9;1.9;;;;;;;;;;;;;-84
2022/06/29 07:09:09;;;;;;;;;;;;;;;26.81;39.88379;101489.3;;;;-84
2022/06/29 07:14:14;;;;;;;;;;;;;;;27.09;39.60547;101490.9;;;;-83
2022/06/29 07:19:14;;;;;;;;;;;;;;;27.32;39.08008;101485.7;;;;-84
2022/06/29 07:24:19;;;;;;;;;;;;;;;27.58;38.91504;101478.8;;;;-84
2022/06/29 07:29:09;;;;;;;;;;;;;;;27.82;38.54004;101481;;;;-84
2022/06/29 07:34:12;;;;;;;;;;;;;;;28.06;38.37402;101479.4;;;;-84
2022/06/29 07:34:23;;;;;;;5.2;1.9;;;;;;;;;;;;;-84
2022/06/29 07:39:19;;;;;;;;;;;;;;;28.27;38.19434;101473.6;;;;-84
2022/06/29 07:44:21;;;;;;;;;;;;;;;28.49;38.00293;101477.6;;;;-86
2022/06/29 07:49:30;;;;;;;;;;;;;;;28.67;37.72559;101472.8;;;;-87
2022/06/29 07:54:16;;;;;;;;;;;;;;;28.82;37.49316;101474.4;;;;-84
2022/06/29 07:59:22;;;;;;;;;;;;;;;29.01;37.4502;101470.9;;;;-84
2022/06/29 08:04:08;;;;;;;;;;;;;;;29.22;37.26855;101475.4;;;;-85
2022/06/29 08:04:21;;;;;;;4.3;2;;;;;;;;;;;;;-85
2022/06/29 08:09:23;;;;;;;;;;;;;;;29.31;37.13574;101476.5;;;;-85
2022/06/29 08:14:09;;;;;;;;;;;;;;;29.41;37.0625;101478.9;;;;-84
2022/06/29 08:19:11;;;;;;;;;;;;;;;29.51;37.04688;101474.7;;;;-85
2022/06/29 08:24:09;;;;;;;;;;;;;;;29.52;36.93066;101477.5;;;;-86
2022/06/29 08:29:14;;;;;;;;;;;;;;;29.5;37.02246;101472.2;;;;-84
2022/06/29 08:34:06;;;;;;;;;;;;;;;29.58;37.28613;101476.2;;;;-87
2022/06/29 08:34:34;;;;;;;3.5;1.8;;;;;;;;;;;;;-84
2022/06/29 08:39:14;;;;;;;;;;;;;;;29.86;36.99414;101472.2;;;;-86
2022/06/29 08:44:12;;;;;;;;;;;;;;;30.07;36.76465;101459.3;;;;-87
2022/06/29 08:59:29;;;;;;;;;;;;;;;30.67;35.78027;101459.5;;;;-84
2022/06/29 09:04:20;;;;;;;;;;;;;;;30.76;35.49414;101460.7;;;;-88
2022/06/29 09:04:36;;;;;;;4.5;2.2;;;;;;;;;;;;;-88
2022/06/29 09:09:22;;;;;;;;;;;;;;;30.74;35.64551;101457.6;;;;-90
2022/06/29 09:14:21;;;;;;;;;;;;;;;30.83;35.61719;101452.6;;;;-88
2022/06/29 09:19:35;;;;;;;;;;;;;;;30.89;35.52832;101452;;;;-89
2022/06/29 09:24:09;;;;;;;;;;;;;;;31.1;35.49707;101450.9;;;;-89
2022/06/29 09:29:24;;;;;;;;;;;;;;;31.35;35.34082;101453.9;;;;-89
2022/06/29 09:34:41;;;;;;;;;;;;;;;31.59;34.94824;101446.5;;;;-89
2022/06/29 09:34:59;;;;;;;3.4;1.7;;;;;;;;;;;;;-89
2022/06/29 09:39:31;;;;;;;;;;;;;;;31.78;34.63281;101439.4;;;;-87
2022/06/29 09:44:07;;;;;;;;;;;;;;;32.12;34.17578;101440;;;;-78
2022/06/29 09:49:07;;;;;;;;;;;;;;;32.36;33.86426;101440.5;;;;-78
2022/06/29 09:54:08;;;;;;;;;;;;;;;32.59;33.44531;101442.6;;;;-77
2022/06/29 09:59:09;;;;;;;;;;;;;;;32.8;32.7998;101438;;;;-79
2022/06/29 10:04:06;;;;;;;;;;;;;;;32.99;32.49414;101434.6;;;;-78
2022/06/29 10:04:36;;;;;;;4.9;1.7;;;;;;;;;;;;;-77
2022/06/29 10:09:07;;;;;;;;;;;;;;;33.19;32.40234;101431.1;;;;-77
2022/06/29 10:14:15;;;;;;;;;;;;;;;33.43;31.71094;101428.8;;;;-77
2022/06/29 10:19:15;;;;;;;;;;;;;;;33.63;31.35742;101424.1;;;;-77
2022/06/29 10:24:09;;;;;;;;;;;;;;;33.84;31.06543;101414.9;;;;-79
2022/06/29 10:29:27;;;;;;;;;;;;;;;34.06;30.6416;101414.2;;;;-78
2022/06/29 10:34:16;;;;;;;;;;;;;;;34.25;30.13379;101416.8;;;;-79
2022/06/29 10:35:05;;;;;;;3.6;1.2;;;;;;;;;;;;;-78
2022/06/29 10:39:18;;;;;;;;;;;;;;;34.39;29.60938;101409.8;;;;-78
2022/06/29 10:44:06;;;;;;;;;;;;;;;34.53;29.85547;101411.2;;;;-75
2022/06/29 10:49:25;;;;;;;;;;;;;;;34.39;28.7207;101410.3;;;;-78
2022/06/29 10:54:16;;;;;;;;;;;;;;;34.17;29.39355;101406.8;;;;-76
2022/06/29 10:59:17;;;;;;;;;;;;;;;34.25;29.30469;101397.5;;;;-78
2022/06/29 11:04:08;;;;;;;;;;;;;;;34.4;29.24219;101400.4;;;;-78
2022/06/29 11:04:47;;;;;;;4.6;1;;;;;;;;;;;;;-78
2022/06/29 11:15:39;;;;;;;;;;;;;;;34.66;29.12891;101390.1;;;;-78
2022/06/29 11:19:09;;;;;;;;;;;;;;;34.95;29.78809;101387.3;;;;-79
2022/06/29 11:24:07;;;;;;;;;;;;;;;35.13;29.40723;101383.5;;;;-78
2022/06/29 11:29:07;;;;;;;;;;;;;;;35.19;29.57813;101376.3;;;;-79
2022/06/29 11:34:07;;;;;;;;;;;;;;;35.21;28.45117;101367.6;;;;-78
2022/06/29 11:34:52;;;;;;;2.1;0.9;;;;;;;;;;;;;-77
2022/06/29 11:39:10;;;;;;;;;;;;;;;35.16;28.64941;101376.7;;;;-78
2022/06/29 11:44:08;;;;;;;;;;;;;;;35.27;29.02539;101379.1;;;;-78
2022/06/29 11:54:07;;;;;;;;;;;;;;;35.4;28.53418;101366.4;;;;-80
2022/06/29 11:59:07;;;;;;;;;;;;;;;35.39;28.98535;101366.6;;;;-78
2022/06/29 12:04:06;;;;;;;;;;;;;;;35.35;29.33887;101366;;;;-78
2022/06/29 12:05:02;;;;;;;2;1;;;;;;;;;;;;;-78
2022/06/29 12:09:08;;;;;;;;;;;;;;;35.24;28.89258;101361.1;;;;-78
2022/06/29 12:14:06;;;;;;;;;;;;;;;35.13;29.00391;101359.2;;;;-77
2022/06/29 12:19:06;;;;;;;;;;;;;;;35.06;29.64063;101350.7;;;;-78
2022/06/29 12:24:06;;;;;;;;;;;;;;;34.95;29.21777;101349.4;;;;-79
2022/06/29 12:29:06;;;;;;;;;;;;;;;34.92;28.97949;101356.4;;;;-79
2022/06/29 12:34:07;;;;;;;;;;;;;;;34.9;29.38184;101355.9;;;;-79
2022/06/29 12:35:03;;;;;;;1.5;1.1;;;;;;;;;;;;;-79
2022/06/29 12:39:09;;;;;;;;;;;;;;;34.77;29.12402;101348;;;;-77
2022/06/29 12:44:08;;;;;;;;;;;;;;;34.63;29.2334;101348;;;;-78
2022/06/29 12:49:06;;;;;;;;;;;;;;;34.51;30.22168;101350;;;;-76
2022/06/29 12:54:06;;;;;;;;;;;;;;;34.42;28.86426;101354.7;;;;-78
2022/06/29 12:59:06;;;;;;;;;;;;;;;34.25;30.34668;101358;;;;-79
2022/06/29 13:04:06;;;;;;;;;;;;;;;34.09;30.63184;101363.9;;;;-77
2022/06/29 13:05:09;;;;;;;2.7;1.4;;;;;;;;;;;;;-78
2022/06/29 13:09:06;;;;;;;;;;;;;;;33.99;31.11035;101367.1;;;;-78
2022/06/29 13:14:06;;;;;;;;;;;;;;;33.88;31.32715;101368.1;;;;-78
2022/06/29 13:19:09;;;;;;;;;;;;;;;33.75;31.01172;101376;;;;-79
2022/06/29 13:24:08;;;;;;;;;;;;;;;33.61;31.41602;101377.5;;;;-79
2022/06/29 13:29:07;;;;;;;;;;;;;;;33.73;32.08691;101372.8;;;;-79
2022/06/29 13:34:06;;;;;;;;;;;;;;;33.99;32.38867;101380.9;;;;-77
2022/06/29 13:35:15;;;;;;;7.3;2.3;;;;;;;;;;;;;-76
2022/06/29 13:39:06;;;;;;;;;;;;;;;34.25;31.92188;101380.1;;;;-78
2022/06/29 13:44:06;;;;;;;;;;;;;;;34.51;31.79785;101382.1;;;;-78
2022/06/29 13:49:07;;;;;;;;;;;;;;;34.61;31.29492;101387;;;;-78
2022/06/29 13:54:10;;;;;;;;;;;;;;;34.65;31.67676;101390.8;;;;-77
2022/06/29 13:59:06;;;;;;;;;;;;;;;34.74;31.89648;101384.2;;;;-77
2022/06/29 14:04:07;;;;;;;;;;;;;;;34.82;31.58203;101382.6;;;;-78
2022/06/29 14:05:20;;;;;;;4.4;2;;;;;;;;;;;;;-78
2022/06/29 14:09:06;;;;;;;;;;;;;;;34.86;30.96777;101382.3;;;;-75
2022/06/29 14:14:07;;;;;;;;;;;;;;;34.87;31.28906;101383.7;;;;-78
2022/06/29 14:19:06;;;;;;;;;;;;;;;34.83;31.42871;101383.7;;;;-78
2022/06/29 14:24:08;;;;;;;;;;;;;;;34.89;31.14746;101385.1;;;;-78
2022/06/29 14:29:07;;;;;;;;;;;;;;;34.93;30.80762;101382.3;;;;-77
2022/06/29 14:34:06;;;;;;;;;;;;;;;34.93;30.58105;101381.3;;;;-78
2022/06/29 14:35:26;;;;;;;3.9;1.4;;;;;;;;;;;;;-78
2022/06/29 14:39:06;;;;;;;;;;;;;;;34.9;30.48438;101384.4;;;;-77
2022/06/29 14:44:10;;;;;;;;;;;;;;;34.94;30.52246;101383.9;;;;-77
2022/06/29 14:49:08;;;;;;;;;;;;;;;34.95;30.23828;101384.2;;;;-78
2022/06/29 14:54:07;;;;;;;;;;;;;;;34.98;29.87207;101384.3;;;;-78
2022/06/29 14:59:06;;;;;;;;;;;;;;;34.99;29.9209;101380;;;;-77
2022/06/29 15:04:06;;;;;;;;;;;;;;;34.95;30.13184;101380.6;;;;-78
2022/06/29 15:05:31;;;;;;;6.5;2.3;;;;;;;;;;;;;-78
2022/06/29 15:09:06;;;;;;;;;;;;;;;34.97;29.94336;101375.1;;;;-80
2022/06/29 15:14:06;;;;;;;;;;;;;;;34.96;30.14453;101365;;;;-78
2022/06/29 15:19:06;;;;;;;;;;;;;;;34.98;29.78906;101355.7;;;;-78
2022/06/29 15:24:07;;;;;;;;;;;;;;;35.01;29.3291;101350.2;;;;-78
2022/06/29 15:29:08;;;;;;;;;;;;;;;35.01;29.34082;101356.3;;;;-77
2022/06/29 15:39:08;;;;;;;;;;;;;;;35;29.54199;101343.7;;;;-80
2022/06/29 15:44:06;;;;;;;;;;;;;;;34.99;29.62402;101352.7;;;;-78
2022/06/29 15:49:06;;;;;;;;;;;;;;;34.94;29.79883;101348.7;;;;-80
2022/06/29 15:59:06;;;;;;;;;;;;;;;34.85;29.75781;101347.4;;;;-79
2022/06/29 16:04:06;;;;;;;;;;;;;;;34.74;29.52539;101347.9;;;;-79
2022/06/29 16:05:42;;;;;;;5.4;2;;;;;;;;;;;;;-79
2022/06/29 16:09:06;;;;;;;;;;;;;;;34.54;29.87988;101342.5;;;;-79
2022/06/29 16:14:06;;;;;;;;;;;;;;;34.35;30.00977;101336.3;;;;-79
2022/06/29 16:19:08;;;;;;;;;;;;;;;34.17;30.53125;101336.2;;;;-80
2022/06/29 16:24:07;;;;;;;;;;;;;;;33.99;30.64941;101336.3;;;;-79
2022/06/29 16:29:06;;;;;;;;;;;;;;;33.8;31.39355;101332.1;;;;-78
2022/06/29 16:34:06;;;;;;;;;;;;;;;33.62;31.6416;101323.3;;;;-78
2022/06/29 16:35:47;;;;;;;3.9;1.7;;;;;;;;;;;;;-79
2022/06/29 16:39:06;;;;;;;;;;;;;;;33.44;31.77051;101319.2;;;;-80
2022/06/29 16:44:08;;;;;;;;;;;;;;;33.23;32.32324;101314;;;;-77
2022/06/29 16:49:08;;;;;;;;;;;;;;;33.07;32.46484;101307;;;;-77
2022/06/29 16:54:06;;;;;;;;;;;;;;;32.9;32.42969;101309.5;;;;-77
2022/06/29 16:59:06;;;;;;;;;;;;;;;32.75;32.60742;101303.7;;;;-80
2022/06/29 17:04:06;;;;;;;;;;;;;;;32.62;32.68066;101301;;;;-80
2022/06/29 17:05:53;;;;;;;4.3;1.5;;;;;;;;;;;;;-78
2022/06/29 17:09:06;;;;;;;;;;;;;;;32.47;32.81152;101300.5;;;;-76
2022/06/29 17:14:06;;;;;;;;;;;;;;;32.35;32.94434;101300;;;;-78
2022/06/29 17:19:06;;;;;;;;;;;;;;;32.22;33.08789;101296.2;;;;-77
2022/06/29 17:24:06;;;;;;;;;;;;;;;32.06;33.22949;101291.7;;;;-77
2022/06/29 17:29:06;;;;;;;;;;;;;;;31.88;33.3457;101288.1;;;;-76
2022/06/29 17:34:06;;;;;;;;;;;;;;;31.7;33.50977;101288.6;;;;-76
2022/06/29 17:35:58;;;;;;;3.6;1.8;;;;;;;;;;;;;-76
2022/06/29 17:39:06;;;;;;;;;;;;;;;31.52;33.625;101277;;;;-76
2022/06/29 17:44:06;;;;;;;;;;;;;;;31.37;33.79004;101280.6;;;;-79
2022/06/29 17:49:08;;;;;;;;;;;;;;;31.17;34.05762;101273.5;;;;-79
2022/06/29 17:54:06;;;;;;;;;;;;;;;30.98;34.30273;101272.4;;;;-79
2022/06/29 17:59:10;;;;;;;;;;;;;;;30.78;34.45117;101274.1;;;;-78
2022/06/29 18:04:06;;;;;;;;;;;;;;;30.57;34.70508;101273.9;;;;-80
2022/06/29 18:06:03;;;;;;;5.8;1.9;;;;;;;;;;;;;-79
2022/06/29 18:09:06;;;;;;;;;;;;;;;30.38;34.90137;101266.8;;;;-77
2022/06/29 18:14:07;;;;;;;;;;;;;;;30.17;35.06152;101270.3;;;;-77
2022/06/29 18:19:10;;;;;;;;;;;;;;;29.98;35.27051;101278.9;;;;-81
2022/06/29 18:24:06;;;;;;;;;;;;;;;29.79;35.41895;101275.5;;;;-81
2022/06/29 18:29:06;;;;;;;;;;;;;;;29.61;35.61621;101279.7;;;;-79
2022/06/29 18:34:08;;;;;;;;;;;;;;;29.44;35.78906;101276.9;;;;-79
2022/06/29 18:36:09;;;;;;;4.7;2;;;;;;;;;;;;;-79
2022/06/29 18:39:07;;;;;;;;;;;;;;;29.27;35.91602;101279.4;;;;-79
2022/06/29 18:44:06;;;;;;;;;;;;;;;29.13;36.06836;101281.2;;;;-79
2022/06/29 18:49:06;;;;;;;;;;;;;;;28.97;36.29004;101280.3;;;;-80
2022/06/29 18:54:06;;;;;;;;;;;;;;;28.81;36.30078;101282.2;;;;-78
2022/06/29 18:59:06;;;;;;;;;;;;;;;28.65;36.42773;101281.5;;;;-79
2022/06/29 19:04:06;;;;;;;;;;;;;;;28.43;36.53809;101286.7;;;;-78
2022/06/29 19:06:12;;;;;;;4.2;2;;;;;;;;;;;;;-80
2022/06/29 19:09:08;;;;;;;;;;;;;;;28.17;36.85645;101290;;;;-79
2022/06/29 19:14:06;;;;;;;;;;;;;;;27.9;36.82227;101286.8;;;;-79
2022/06/29 19:19:06;;;;;;;;;;;;;;;27.63;37.02051;101290.2;;;;-79
2022/06/29 19:24:07;;;;;;;;;;;;;;;27.34;37.16113;101287.4;;;;-80
2022/06/29 19:29:07;;;;;;;;;;;;;;;26.99;38.14453;101289.8;;;;-80
2022/06/29 19:34:08;;;;;;;;;;;;;;;25.81;42.33301;101285.4;;;;-77
2022/06/29 19:36:16;;;;;;;5.6;3.1;;;;;;;;;;;;;-77
2022/06/29 19:39:06;;;;;;;;;;;;;;;25.82;40.45605;101287.3;;;;-78
2022/06/29 19:44:06;;;;;;;;;;;;;;;25.81;39.55176;101289.9;;;;-77
2022/06/29 19:49:09;;;;;;;;;;;;;;;25.65;39.3291;101293;;;;-77
2022/06/29 19:54:06;;;;;;;;;;;;;;;25.41;39.38867;101295;;;;-76
2022/06/29 19:59:07;;;;;;;;;;;;;;;25.19;39.52051;101301.1;;;;-76
2022/06/29 20:04:06;;;;;;;;;;;;;;;24.95;39.70703;101293.5;;;;-76
2022/06/29 20:06:20;;;;;;;4.8;2.1;;;;;;;;;;;;;-79
2022/06/29 20:09:06;;;;;;;;;;;;;;;24.7;40.16016;101303.1;;;;-76
2022/06/29 20:14:06;;;;;;;;;;;;;;;24.47;40.49707;101303.5;;;;-76
2022/06/29 20:19:07;;;;;;;;;;;;;;;24.24;40.74219;101308.2;;;;-76
2022/06/29 20:24:06;;;;;;;;;;;;;;;24.02;41.24121;101309.3;;;;-77
2022/06/29 20:29:07;;;;;;;;;;;;;;;23.8;41.62598;101305.6;;;;-77
2022/06/29 20:34:07;;;;;;;;;;;;;;;23.6;42.11328;101300.9;;;;-77
2022/06/29 20:36:25;;;;;;;5.9;2.8;;;;;;;;;;;;;-76
2022/06/29 20:39:07;;;;;;;;;;;;;;;23.41;42.31445;101303;;;;-78
2022/06/29 20:49:06;;;;;;;;;;;;;;;23.05;42.88086;101302.5;;;;-75
2022/06/29 20:54:06;;;;;;;;;;;;;;;22.87;43.24219;101301.8;;;;-77
2022/06/29 20:59:06;;;;;;;;;;;;;;;22.71;43.56055;101302.8;;;;-80
2022/06/29 21:04:06;;;;;;;;;;;;;;;22.55;43.87793;101304.5;;;;-77
2022/06/29 21:06:33;;;;;;;5.1;2.7;;;;;;;;;;;;;-77
2022/06/29 21:09:06;;;;;;;;;;;;;;;22.4;44.18555;101303.8;;;;-77
2022/06/29 21:14:06;;;;;;;;;;;;;;;22.26;44.22852;101305.1;;;;-77
2022/06/29 21:19:06;;;;;;;;;;;;;;;22.13;44.58203;101312.1;;;;-77
2022/06/29 21:24:07;;;;;;;;;;;;;;;21.99;44.75293;101316.2;;;;-79
2022/06/29 21:29:06;;;;;;;;;;;;;;;21.87;45.02734;101314.7;;;;-77
2022/06/29 21:34:06;;;;;;;;;;;;;;;21.74;45.27832;101319.6;;;;-77
2022/06/29 21:36:30;;;;;;;5.8;3.5;;;;;;;;;;;;;-78
2022/06/29 21:39:06;;;;;;;;;;;;;;;21.62;45.46094;101319.3;;;;-78
2022/06/29 21:44:06;;;;;;;;;;;;;;;21.5;45.7002;101312.8;;;;-76
2022/06/29 21:54:07;;;;;;;;;;;;;;;21.25;46.30469;101310.8;;;;-78
2022/06/29 22:00:39;;;;;;;;;;;;;;;21.04;46.67383;101291;;;;-83
2022/06/29 22:29:06;;;;;;;;;;;;;;;20.88;46.82813;101274.4;;;;-85
2022/06/29 22:32:56;;;;;;;;;;;;;;;20.49;47.30078;101272.9;;;;-87
2022/06/29 22:36:39;;;;;;;6.2;4.3;;;;;;;;;;;;;-87
2022/06/29 22:37:55;;;;;;;;;;;;;;;20.42;47.5332;101264.7;;;;-85
2022/06/29 22:42:57;;;;;;;;;;;;;;;20.33;47.61523;101263.7;;;;-85
2022/06/29 22:47:54;;;;;;;;;;;;;;;20.26;47.91602;101264.8;;;;-86
2022/06/29 22:52:55;;;;;;;;;;;;;;;20.18;47.81543;101274.4;;;;-84
2022/06/29 22:57:56;;;;;;;;;;;;;;;20.09;48.02344;101272.8;;;;-85
2022/06/29 23:02:55;;;;;;;;;;;;;;;20.02;48.08398;101273;;;;-85
2022/06/29 23:06:46;;;;;;;7.9;5.1;;;;;;;;;;;;;-85
2022/06/29 23:07:55;;;;;;;;;;;;;;;19.96;48.44238;101267.1;;;;-85
2022/06/29 23:12:56;;;;;;;;;;;;;;;19.88;48.53613;101265.2;;;;-85
2022/06/29 23:17:55;;;;;;;;;;;;;;;19.81;48.63086;101263;;;;-83
2022/06/29 23:22:54;;;;;;;;;;;;;;;19.72;48.80566;101262.5;;;;-85
2022/06/29 23:27:55;;;;;;;;;;;;;;;19.65;49.03711;101257.3;;;;-84
2022/06/29 23:33:05;;;;;;;;;;;;;;;19.58;49.30176;101258.8;;;;-84
2022/06/29 23:36:48;;;;;;;7.9;5.7;;;;;;;;;;;;;-83
2022/06/29 23:37:54;;;;;;;;;;;;;;;19.52;49.4668;101251.4;;;;-86
2022/06/29 23:42:54;;;;;;;;;;;;;;;19.47;49.74609;101240.2;;;;-86
2022/06/29 23:47:54;;;;;;;;;;;;;;;19.4;49.68164;101229.5;;;;-86
2022/06/29 23:52:54;;;;;;;;;;;;;;;19.34;49.80078;101219.1;;;;-84
2022/06/29 23:57:56;;;;;;;;;;;;;;;19.29;49.66895;101206.8;;;;-86
